Terminal Aerodrome Forecast
Issued by NWS Wilmington, OH

Current Version | Previous Version | Text Only | Print | Product List | Glossary Off
Versions: 1 2 3 4 5 6 7 8 9 10 11 12 13 14 15 16 17 18 19

000
FTUS41 KILN 181120
TAFILN
TAF
KILN 181120Z 1812/1912 20015G25KT P6SM VCSH OVC028 WS020/21055KT
     FM181500 20018G32KT P6SM VCSH OVC015 WS020/22055KT
     FM182300 22022G36KT 2SM +SHRA BR VCTS OVC012CB WS020/22055KT
     FM190100 28021G38KT 4SM -SHRA BR OVC012
     FM190500 30019G32KT P6SM OVC018
     FM191000 29013G22KT P6SM OVC022=

USA.gov is the U.S. government's official web portal to all federal, state and local government web resources and services.